Forside
METAR-TAF:

METAR-TAF

Lufthavne :

Council Bluffs, Iowa, USA

Breddekreds: 41-16N, længdekreds: 095-46W, højde: 382 m

Aktuelle vejr

Denne rapport blev lavet for 28 minutter siden, kl. 16:15 UTC
Vind 6 kt fra nordøst med vindstød på up til 11 kt
Temperatur 10°C
Fugtighed 43%
Tryk 1029 hPa
Sigt: 16.1 km
skyfri

METAR: KCBF 231615Z AUTO 05006G11KT 10SM CLR 10/M02 A3040 RMK AO2

Tid: 11:43 (16:43 UTC)


TAF: fraværende

Vejrobservationer og prognoser fra mere end 4000 lufthavne (METAR og TAF).

De gule og røde prikker repræsenterer de meteorologiske stationer.

Flyt musen over at se navnet på stationen.

Så klik over at se vejr observationer og prognoser.

At skifte det kort: Klik på de grønne knapper med et sort kors for at zoome ind; på den grønne knap med en bindestreg for at zoome ud; eller på de grønne pile for tilstødende kort.


METAR-TAF: